createdAt,value
2022-11-14T00:00:54.661Z,8.95
2022-11-14T00:03:21.053Z,8.50
2022-11-14T00:05:47.858Z,8.40
2022-11-14T00:08:20.093Z,9.43
2022-11-14T00:10:48.119Z,8.43
2022-11-14T00:13:15.935Z,9.13
2022-11-14T00:15:42.778Z,10.03
2022-11-14T00:18:09.170Z,9.13
2022-11-14T00:20:35.905Z,9.75
2022-11-14T00:23:02.260Z,10.15
2022-11-14T00:25:28.655Z,10.38
2022-11-14T00:27:58.005Z,10.73
2022-11-14T00:30:24.434Z,10.88
2022-11-14T00:32:50.837Z,10.40
2022-11-14T00:35:17.439Z,10.57
2022-11-14T00:37:43.822Z,11.50
2022-11-14T00:40:10.566Z,10.43
2022-11-14T00:42:37.000Z,11.23
2022-11-14T00:45:03.954Z,12.25
2022-11-14T00:47:30.418Z,11.73
2022-11-14T00:49:56.798Z,11.48
2022-11-14T00:52:23.157Z,11.87
2022-11-14T00:54:49.522Z,11.60
2022-11-14T00:57:15.908Z,12.77
2022-11-14T00:59:42.254Z,12.60
2022-11-14T01:02:08.690Z,12.77
2022-11-14T01:04:35.082Z,12.17
2022-11-14T01:07:01.473Z,11.82
2022-11-14T01:09:27.988Z,12.90
2022-11-14T01:11:54.414Z,13.43
2022-11-14T01:14:20.809Z,12.80
2022-11-14T01:16:47.210Z,14.73
2022-11-14T01:19:13.560Z,12.82
2022-11-14T01:21:39.911Z,12.57
2022-11-14T01:24:06.897Z,13.15
2022-11-14T01:26:33.278Z,13.77
2022-11-14T01:28:59.630Z,12.50
2022-11-14T01:31:26.307Z,13.35
2022-11-14T01:33:54.145Z,13.50
2022-11-14T01:36:21.002Z,14.00
2022-11-14T01:38:52.445Z,14.55
2022-11-14T01:41:19.299Z,13.67
2022-11-14T01:43:45.713Z,12.63
2022-11-14T01:46:24.087Z,14.82
2022-11-14T01:48:58.401Z,13.30
2022-11-14T01:51:33.786Z,13.20
2022-11-14T01:54:05.821Z,13.73
2022-11-14T01:56:51.796Z,14.15
2022-11-14T01:59:22.134Z,15.10
2022-11-14T02:01:51.278Z,13.52
2022-11-14T02:04:28.910Z,14.38
2022-11-14T02:07:02.266Z,14.60
2022-11-14T02:09:32.725Z,14.60
2022-11-14T02:12:01.002Z,15.10
2022-11-14T02:14:28.846Z,13.77
2022-11-14T02:17:14.822Z,15.95
2022-11-14T02:20:02.136Z,14.93
2022-11-14T02:22:31.077Z,13.75
2022-11-14T02:24:57.447Z,15.10
2022-11-14T02:27:24.954Z,15.45
2022-11-14T02:29:52.232Z,15.30
2022-11-14T02:32:18.818Z,14.33
2022-11-14T02:34:45.198Z,15.60
2022-11-14T02:37:11.646Z,15.02
2022-11-14T02:39:38.911Z,16.55
2022-11-14T02:42:05.495Z,16.25
2022-11-14T02:44:31.895Z,14.77
2022-11-14T02:46:58.341Z,16.40
2022-11-14T02:49:24.736Z,14.95
2022-11-14T02:51:51.204Z,16.15
2022-11-14T02:54:17.634Z,16.48
2022-11-14T02:56:44.054Z,16.33
2022-11-14T02:59:10.487Z,15.45
2022-11-14T03:01:37.030Z,16.75
2022-11-14T03:04:04.337Z,14.55
2022-11-14T03:06:31.554Z,15.38
2022-11-14T03:08:58.098Z,15.17
2022-11-14T03:11:24.502Z,16.10
2022-11-14T03:13:50.914Z,14.60
2022-11-14T03:16:17.424Z,14.75
2022-11-14T03:18:43.936Z,14.38
2022-11-14T03:21:21.272Z,14.57
2022-11-14T03:23:47.827Z,13.90
2022-11-14T03:26:15.427Z,15.25
2022-11-14T03:28:42.617Z,14.75
2022-11-14T03:31:11.599Z,15.23
2022-11-14T03:33:38.115Z,16.73
2022-11-14T03:36:05.533Z,14.85
2022-11-14T03:38:32.932Z,15.48
2022-11-14T03:41:00.855Z,15.43
2022-11-14T03:43:31.224Z,14.15
2022-11-14T03:46:01.994Z,14.87
2022-11-14T03:48:29.828Z,14.95
2022-11-14T03:50:56.618Z,13.90
2022-11-14T03:53:23.565Z,14.35
2022-11-14T03:55:50.855Z,15.48
2022-11-14T03:58:17.287Z,15.00
2022-11-14T04:00:43.803Z,14.38
2022-11-14T04:03:10.360Z,14.82
2022-11-14T04:05:36.829Z,13.60
2022-11-14T04:08:06.866Z,15.05
2022-11-14T04:10:33.351Z,14.13
2022-11-14T04:12:59.754Z,15.55
2022-11-14T04:15:26.172Z,13.75
2022-11-14T04:17:52.678Z,14.82
2022-11-14T04:20:19.183Z,16.40
2022-11-14T04:22:46.056Z,14.80
2022-11-14T04:25:13.201Z,14.07
2022-11-14T04:27:40.046Z,13.88
2022-11-14T04:30:07.317Z,15.23
2022-11-14T04:32:33.751Z,14.60
2022-11-14T04:35:00.179Z,12.93
2022-11-14T04:37:26.696Z,13.82
2022-11-14T04:39:53.510Z,14.25
2022-11-14T04:42:19.882Z,14.32
2022-11-14T04:44:46.283Z,13.48
2022-11-14T04:47:12.750Z,13.43
2022-11-14T04:49:39.186Z,13.23
2022-11-14T04:52:05.639Z,13.75
2022-11-14T04:54:32.069Z,15.15
2022-11-14T04:56:58.565Z,13.68
2022-11-14T04:59:25.448Z,13.60
2022-11-14T05:01:52.078Z,13.20
2022-11-14T05:04:18.519Z,13.65
2022-11-14T05:06:44.967Z,13.00
2022-11-14T05:09:11.444Z,14.30
2022-11-14T05:11:37.814Z,13.27
2022-11-14T05:14:04.243Z,15.15
2022-11-14T05:16:30.733Z,14.77
2022-11-14T05:18:57.119Z,14.93
2022-11-14T05:21:23.516Z,13.60
2022-11-14T05:23:49.949Z,14.50
2022-11-14T05:26:18.490Z,12.68
2022-11-14T05:28:45.246Z,13.27
2022-11-14T05:31:14.913Z,12.27
2022-11-14T05:33:41.246Z,13.10
2022-11-14T05:36:13.247Z,12.90
2022-11-14T05:38:39.985Z,13.50
2022-11-14T05:41:08.175Z,13.10
2022-11-14T05:43:35.051Z,12.35
2022-11-14T05:46:03.151Z,11.60
2022-11-14T05:48:30.974Z,12.80
2022-11-14T05:51:00.795Z,13.40
2022-11-14T05:53:28.752Z,12.57
2022-11-14T05:55:55.886Z,11.88
2022-11-14T05:58:22.756Z,11.85
2022-11-14T06:00:53.672Z,12.10
2022-11-14T06:03:20.748Z,11.98
2022-11-14T06:05:47.232Z,13.32
2022-11-14T06:08:13.711Z,11.75
2022-11-14T06:10:40.164Z,12.35
2022-11-14T06:13:06.570Z,11.83
2022-11-14T06:15:33.052Z,11.50
2022-11-14T06:17:59.598Z,12.30
2022-11-14T06:20:26.020Z,11.18
2022-11-14T06:22:54.736Z,11.23
2022-11-14T06:25:21.117Z,11.43
2022-11-14T06:27:47.549Z,11.00
2022-11-14T06:30:14.025Z,11.27
2022-11-14T06:32:40.406Z,11.52
2022-11-14T06:35:08.406Z,11.57
2022-11-14T06:37:37.695Z,11.73
2022-11-14T06:40:04.521Z,11.93
2022-11-14T06:42:30.974Z,12.00
2022-11-14T06:44:57.366Z,11.18
2022-11-14T06:47:23.810Z,11.57
2022-11-14T06:49:50.228Z,11.60
2022-11-14T06:52:16.844Z,10.98
2022-11-14T06:54:43.241Z,13.13
2022-11-14T06:57:10.011Z,12.20
2022-11-14T06:59:36.495Z,13.55
2022-11-14T07:02:02.998Z,12.10
2022-11-14T07:04:30.976Z,11.00
2022-11-14T07:07:00.196Z,12.88
2022-11-14T07:09:26.976Z,12.55
2022-11-14T07:11:54.011Z,13.32
2022-11-14T07:14:20.405Z,16.50
2022-11-14T07:16:47.347Z,12.02
2022-11-14T07:19:13.961Z,12.98
2022-11-14T07:21:40.976Z,12.88
2022-11-14T07:24:07.733Z,11.90
2022-11-14T07:26:34.307Z,14.37
2022-11-14T07:29:02.866Z,16.85
2022-11-14T07:31:29.582Z,13.80
2022-11-14T07:33:56.056Z,13.60
2022-11-14T07:36:23.606Z,11.75
2022-11-14T07:38:50.093Z,12.00
2022-11-14T07:41:17.305Z,11.63
2022-11-14T07:43:44.385Z,12.32
2022-11-14T07:46:13.426Z,11.43
2022-11-14T07:48:39.897Z,11.18
2022-11-14T07:51:10.594Z,10.83
2022-11-14T07:53:37.229Z,11.27
2022-11-14T07:56:06.765Z,11.13
2022-11-14T07:58:36.112Z,10.25
2022-11-14T08:01:04.755Z,10.20
2022-11-14T08:03:31.650Z,10.27
2022-11-14T08:06:07.284Z,11.85
2022-11-14T08:08:34.363Z,10.98
2022-11-14T08:11:01.782Z,10.52
2022-11-14T08:13:33.478Z,13.90
2022-11-14T08:16:10.755Z,19.70
2022-11-14T08:18:39.190Z,26.65
2022-11-14T08:21:06.235Z,17.33
2022-11-14T08:23:32.906Z,20.15
2022-11-14T08:26:00.038Z,15.15
2022-11-14T08:28:27.011Z,17.73
2022-11-14T08:30:59.192Z,12.18
2022-11-14T08:33:25.680Z,12.70
2022-11-14T08:35:52.121Z,11.60
2022-11-14T08:38:18.662Z,12.38
2022-11-14T08:40:45.070Z,11.23
2022-11-14T08:43:11.736Z,10.88
2022-11-14T08:45:38.233Z,10.18
2022-11-14T08:48:05.728Z,9.75
2022-11-14T08:50:32.406Z,10.25
2022-11-14T08:52:59.109Z,9.83
2022-11-14T08:55:25.699Z,10.75
2022-11-14T08:57:53.409Z,10.38
2022-11-14T09:00:20.289Z,10.27
2022-11-14T09:02:47.062Z,9.43
2022-11-14T09:05:13.633Z,9.93
2022-11-14T09:07:40.102Z,9.90
2022-11-14T09:10:07.370Z,10.23
2022-11-14T09:12:34.261Z,9.90
2022-11-14T09:15:00.721Z,9.45
2022-11-14T09:17:27.086Z,10.93
2022-11-14T09:19:54.018Z,9.43
2022-11-14T09:22:20.394Z,11.07
2022-11-14T09:24:49.522Z,9.10
2022-11-14T09:27:15.970Z,10.23
2022-11-14T09:29:42.619Z,9.80
2022-11-14T09:32:09.475Z,10.05
2022-11-14T09:34:37.196Z,9.80
2022-11-14T09:37:03.848Z,10.05
2022-11-14T09:39:30.521Z,8.90
2022-11-14T09:42:06.182Z,9.30
2022-11-14T09:44:49.785Z,9.27
2022-11-14T09:47:21.801Z,8.18
2022-11-14T09:49:51.499Z,8.82
2022-11-14T09:52:35.448Z,7.88
2022-11-14T09:55:16.826Z,8.20
2022-11-14T09:57:44.957Z,8.05
2022-11-14T10:00:16.387Z,8.00
2022-11-14T10:02:54.156Z,8.10
2022-11-14T10:06:07.133Z,7.85
2022-11-14T10:09:09.098Z,8.03
2022-11-14T10:11:48.447Z,7.13
2022-11-14T10:14:26.607Z,8.18
2022-11-14T10:17:14.844Z,8.52
2022-11-14T10:20:00.265Z,7.90
2022-11-14T10:23:01.368Z,7.80
2022-11-14T10:26:11.007Z,7.53
2022-11-14T10:28:59.453Z,6.97
2022-11-14T10:31:42.379Z,7.35
2022-11-14T10:34:28.028Z,7.38
2022-11-14T10:37:20.412Z,8.57
2022-11-14T10:39:54.210Z,7.47
2022-11-14T10:42:39.650Z,7.68
2022-11-14T10:45:24.793Z,7.88
2022-11-14T10:48:08.023Z,8.10
2022-11-14T10:50:48.064Z,7.97
2022-11-14T10:53:24.029Z,7.97
2022-11-14T10:56:04.353Z,8.00
2022-11-14T10:58:47.911Z,7.13
2022-11-14T11:01:37.474Z,7.38
2022-11-14T11:04:19.394Z,6.80
2022-11-14T11:06:46.565Z,7.90
2022-11-14T11:09:40.636Z,7.90
2022-11-14T11:12:17.507Z,7.88
2022-11-14T11:14:45.759Z,8.50
2022-11-14T11:17:12.939Z,8.27
2022-11-14T11:19:39.782Z,8.43
2022-11-14T11:22:24.958Z,8.18
2022-11-14T11:24:51.363Z,9.65
2022-11-14T11:27:30.588Z,12.65
2022-11-14T11:30:03.481Z,8.30
2022-11-14T11:32:29.978Z,8.65
2022-11-14T11:35:00.063Z,8.77
2022-11-14T11:37:40.208Z,9.38
2022-11-14T11:40:15.767Z,7.90
2022-11-14T11:45:49.784Z,8.75
2022-11-14T11:48:27.678Z,9.07
2022-11-14T11:50:54.091Z,9.20
2022-11-14T11:53:34.141Z,8.20
2022-11-14T11:56:06.992Z,9.00
2022-11-14T11:58:42.026Z,8.30
2022-11-14T12:01:16.658Z,8.52
2022-11-14T12:03:48.357Z,9.02
2022-11-14T12:06:24.727Z,10.02
2022-11-14T12:09:14.378Z,7.63
2022-11-14T12:11:46.835Z,9.18
2022-11-14T12:14:43.511Z,9.40
2022-11-14T12:17:39.403Z,8.57
2022-11-14T12:20:21.217Z,9.18
2022-11-14T12:23:03.271Z,10.13
2022-11-14T12:25:42.354Z,10.68
2022-11-14T12:28:50.681Z,9.75
2022-11-14T12:31:18.437Z,10.85
2022-11-14T12:33:59.182Z,10.82
2022-11-14T12:36:31.464Z,11.07
2022-11-14T12:38:59.435Z,11.93
2022-11-14T12:41:31.181Z,11.02
2022-11-14T12:44:28.435Z,11.45
2022-11-14T12:47:07.234Z,10.80
2022-11-14T12:49:49.445Z,11.53
2022-11-14T12:52:43.794Z,11.55
2022-11-14T12:55:25.406Z,10.40
2022-11-14T12:58:07.372Z,10.90
2022-11-14T13:00:40.780Z,11.32
2022-11-14T13:03:20.298Z,12.37
2022-11-14T13:05:49.861Z,12.15
2022-11-14T13:08:51.950Z,12.18
2022-11-14T13:11:58.324Z,11.00
2022-11-14T13:14:43.473Z,12.15
2022-11-14T13:17:49.015Z,11.57
2022-11-14T13:20:40.254Z,12.93
2022-11-14T13:23:25.113Z,12.60
2022-11-14T13:26:09.994Z,12.45
2022-11-14T13:28:53.212Z,12.63
2022-11-14T13:31:28.450Z,12.97
2022-11-14T13:34:00.600Z,12.80
2022-11-14T13:36:27.891Z,12.80
2022-11-14T13:39:01.234Z,13.02
2022-11-14T13:41:47.965Z,13.07
2022-11-14T13:44:39.575Z,12.93
2022-11-14T13:47:21.553Z,11.65
2022-11-14T13:49:54.173Z,12.48
2022-11-14T13:52:21.662Z,13.02
2022-11-14T13:54:49.419Z,12.80
2022-11-14T13:58:10.341Z,12.43
2022-11-14T14:01:04.757Z,12.00
2022-11-14T14:03:54.285Z,13.13
2022-11-14T14:06:50.349Z,12.15
2022-11-14T14:09:32.810Z,14.63
2022-11-14T14:12:31.111Z,12.47
2022-11-14T14:15:10.566Z,13.52
2022-11-14T14:17:43.335Z,14.90
2022-11-14T14:20:28.313Z,13.30
2022-11-14T14:23:16.516Z,13.43
2022-11-14T14:26:00.050Z,14.32
2022-11-14T14:28:56.202Z,15.88
2022-11-14T14:31:25.824Z,18.07
2022-11-14T14:33:52.771Z,18.88
2022-11-14T14:36:27.662Z,23.42
2022-11-14T14:39:17.376Z,20.65
2022-11-14T14:41:44.732Z,20.05
2022-11-14T14:44:39.156Z,25.23
2022-11-14T14:47:24.754Z,18.15
2022-11-14T14:49:51.244Z,18.38
2022-11-14T14:52:38.146Z,17.92
2022-11-14T14:55:08.572Z,19.98
2022-11-14T14:57:35.152Z,17.80
2022-11-14T15:00:18.321Z,17.23
2022-11-14T15:02:46.999Z,16.85
2022-11-14T15:05:25.601Z,17.67
2022-11-14T15:07:59.080Z,17.10
2022-11-14T15:10:34.805Z,16.13
2022-11-14T15:13:01.359Z,16.05
2022-11-14T15:15:28.357Z,16.70
2022-11-14T15:17:58.504Z,15.18
2022-11-14T15:20:27.686Z,16.33
2022-11-14T15:23:03.388Z,15.20
2022-11-14T15:25:30.856Z,15.10
2022-11-14T15:28:00.702Z,14.73
2022-11-14T15:30:36.840Z,14.68
2022-11-14T15:33:27.378Z,14.30
2022-11-14T15:36:07.807Z,14.13
2022-11-14T15:38:54.693Z,14.20
2022-11-14T15:41:25.271Z,14.05
2022-11-14T15:43:53.258Z,14.52
2022-11-14T15:46:37.739Z,13.77
2022-11-14T15:49:27.671Z,13.50
2022-11-14T15:52:01.417Z,13.80
2022-11-14T15:54:33.115Z,12.98
2022-11-14T15:57:12.247Z,14.57
2022-11-14T15:59:44.753Z,16.15
2022-11-14T16:02:26.822Z,14.67
2022-11-14T16:04:54.869Z,14.23
2022-11-14T16:07:22.600Z,13.48
2022-11-14T16:09:49.653Z,13.95
2022-11-14T16:12:16.148Z,13.48
2022-11-14T16:14:43.737Z,14.63
2022-11-14T16:17:16.866Z,14.73
2022-11-14T16:19:44.702Z,13.82
2022-11-14T16:22:15.653Z,14.00
2022-11-14T16:24:42.340Z,14.02
2022-11-14T16:27:09.494Z,14.33
2022-11-14T16:29:35.896Z,14.85
2022-11-14T16:32:03.516Z,14.45
2022-11-14T16:34:30.323Z,14.75
2022-11-14T16:37:01.524Z,15.07
2022-11-14T16:39:29.673Z,15.20
2022-11-14T16:42:02.863Z,15.32
2022-11-14T16:44:37.287Z,15.98
2022-11-14T16:47:07.539Z,18.50
2022-11-14T16:49:34.024Z,20.35
2022-11-14T16:52:05.505Z,19.03
2022-11-14T16:54:42.931Z,18.60
2022-11-14T16:57:10.365Z,20.45
2022-11-14T16:59:37.047Z,19.30
2022-11-14T17:02:04.481Z,20.40
2022-11-14T17:04:31.373Z,21.37
2022-11-14T17:06:57.950Z,21.88
2022-11-14T17:09:24.382Z,19.95
2022-11-14T17:11:51.335Z,19.20
2022-11-14T17:14:18.413Z,17.33
2022-11-14T17:16:46.367Z,17.10
2022-11-14T17:19:13.230Z,15.38
2022-11-14T17:21:39.776Z,14.82
2022-11-14T17:24:07.924Z,14.27
2022-11-14T17:26:36.550Z,14.70
2022-11-14T17:29:04.491Z,14.13
2022-11-14T17:31:37.612Z,13.70
2022-11-14T17:34:05.540Z,14.40
2022-11-14T17:36:32.065Z,14.82
2022-11-14T17:38:59.422Z,13.95
2022-11-14T17:41:26.078Z,14.03
2022-11-14T17:43:54.238Z,13.48
2022-11-14T17:46:20.900Z,14.85
2022-11-14T17:48:47.723Z,16.30
2022-11-14T17:51:16.107Z,13.40
2022-11-14T17:53:42.907Z,14.20
2022-11-14T17:56:21.004Z,15.25
2022-11-14T17:58:52.608Z,14.63
2022-11-14T18:01:24.486Z,14.13
2022-11-14T18:03:51.074Z,14.00
2022-11-14T18:06:20.768Z,13.73
2022-11-14T18:08:48.090Z,14.45
2022-11-14T18:11:17.359Z,14.05
2022-11-14T18:13:43.997Z,15.02
2022-11-14T18:16:13.321Z,14.85
2022-11-14T18:18:40.285Z,14.40
2022-11-14T18:21:14.898Z,14.10
2022-11-14T18:23:43.797Z,14.07
2022-11-14T18:26:15.735Z,13.25
2022-11-14T18:28:42.670Z,16.83
2022-11-14T18:31:13.846Z,16.37
2022-11-14T18:33:41.794Z,15.40
2022-11-14T18:36:14.250Z,14.98
2022-11-14T18:38:41.499Z,16.42
2022-11-14T18:41:10.981Z,17.27
2022-11-14T18:43:37.560Z,18.17
2022-11-14T18:46:21.834Z,16.80
2022-11-14T18:48:55.602Z,16.58
2022-11-14T18:51:28.113Z,16.17
2022-11-14T18:54:04.622Z,16.05
2022-11-14T18:56:31.015Z,14.37
2022-11-14T18:58:57.853Z,14.48
2022-11-14T19:01:26.501Z,12.52
2022-11-14T19:03:56.871Z,12.55
2022-11-14T19:06:23.760Z,11.75
2022-11-14T19:08:50.605Z,11.80
2022-11-14T19:11:36.847Z,12.50
2022-11-14T19:14:06.705Z,13.80
2022-11-14T19:16:34.472Z,16.55
2022-11-14T19:19:01.303Z,19.52
2022-11-14T19:21:28.647Z,18.60
2022-11-14T19:23:55.200Z,18.90
2022-11-14T19:26:22.636Z,19.45
2022-11-14T19:28:49.618Z,15.55
2022-11-14T19:31:17.483Z,15.57
2022-11-14T19:33:46.512Z,15.20
2022-11-14T19:36:18.763Z,15.00
2022-11-14T19:38:59.113Z,14.23
2022-11-14T19:41:28.002Z,13.93
2022-11-14T19:43:59.061Z,12.70
2022-11-14T19:46:27.101Z,12.93
2022-11-14T19:48:58.610Z,11.38
2022-11-14T19:51:26.044Z,12.55
2022-11-14T19:53:53.549Z,10.65
2022-11-14T19:56:21.799Z,11.30
2022-11-14T19:58:49.876Z,10.70
2022-11-14T20:01:19.540Z,11.93
2022-11-14T20:04:00.685Z,12.10
2022-11-14T20:06:32.849Z,11.07
2022-11-14T20:09:01.961Z,11.75
2022-11-14T20:11:32.439Z,11.73
2022-11-14T20:14:01.636Z,12.07
2022-11-14T20:16:34.346Z,10.43
2022-11-14T20:19:06.562Z,10.48
2022-11-14T20:21:34.338Z,10.30
2022-11-14T20:24:01.142Z,10.90
2022-11-14T20:26:27.851Z,10.45
2022-11-14T20:28:54.884Z,10.68
2022-11-14T20:31:25.830Z,11.18
2022-11-14T20:33:53.975Z,11.88
2022-11-14T20:36:23.967Z,10.43
2022-11-14T20:38:51.239Z,10.95
2022-11-14T20:41:20.919Z,11.18
2022-11-14T20:43:49.311Z,9.68
2022-11-14T20:46:18.573Z,10.45
2022-11-14T20:48:46.359Z,9.27
2022-11-14T20:51:18.599Z,10.10
2022-11-14T20:53:46.018Z,9.73
2022-11-14T20:56:13.604Z,9.05
2022-11-14T20:58:41.642Z,8.65
2022-11-14T21:01:20.275Z,9.03
2022-11-14T21:03:48.981Z,9.02
2022-11-14T21:06:17.736Z,7.97
2022-11-14T21:08:44.402Z,9.10
2022-11-14T21:11:14.220Z,8.85
2022-11-14T21:13:58.959Z,9.47
2022-11-14T21:16:34.432Z,9.15
2022-11-14T21:19:01.986Z,9.05
2022-11-14T21:21:34.042Z,9.13
2022-11-14T21:24:00.698Z,9.05
2022-11-14T21:26:34.443Z,8.80
2022-11-14T21:29:04.069Z,9.65
2022-11-14T21:31:33.382Z,10.25
2022-11-14T21:34:06.533Z,9.38
2022-11-14T21:36:48.665Z,10.40
2022-11-14T21:39:18.757Z,10.73
2022-11-14T21:41:49.091Z,10.45
2022-11-14T21:44:22.742Z,13.65
2022-11-14T21:46:50.001Z,11.40
2022-11-14T21:49:16.827Z,10.23
2022-11-14T21:51:43.281Z,11.27
2022-11-14T21:54:09.762Z,10.65
2022-11-14T21:56:37.164Z,10.50
2022-11-14T21:59:13.672Z,11.05
2022-11-14T22:02:04.766Z,11.88
2022-11-14T22:04:31.930Z,10.53
2022-11-14T22:07:01.385Z,11.15
2022-11-14T22:09:28.691Z,10.88
2022-11-14T22:11:55.896Z,11.48
2022-11-14T22:14:22.519Z,10.75
2022-11-14T22:16:48.907Z,10.57
2022-11-14T22:19:18.965Z,10.65
2022-11-14T22:21:45.766Z,11.02
2022-11-14T22:24:12.255Z,11.55
2022-11-14T22:26:40.103Z,10.70
2022-11-14T22:29:07.320Z,10.13
2022-11-14T22:31:37.536Z,9.52
2022-11-14T22:34:04.238Z,10.57
2022-11-14T22:36:30.878Z,10.20
2022-11-14T22:38:57.686Z,10.05
2022-11-14T22:41:31.836Z,9.93
2022-11-14T22:43:59.522Z,10.98
2022-11-14T22:46:27.368Z,11.00
2022-11-14T22:48:54.873Z,10.32
2022-11-14T22:51:24.159Z,10.63
2022-11-14T22:53:52.867Z,11.03
2022-11-14T22:56:21.966Z,11.18
2022-11-14T22:58:48.656Z,10.40
2022-11-14T23:01:20.596Z,9.63
2022-11-14T23:03:51.104Z,11.02
2022-11-14T23:06:18.955Z,11.60
2022-11-14T23:08:45.935Z,10.25
2022-11-14T23:11:14.996Z,11.25
2022-11-14T23:13:44.508Z,10.23
2022-11-14T23:16:12.784Z,10.02
2022-11-14T23:18:39.670Z,10.93
2022-11-14T23:21:09.153Z,10.23
2022-11-14T23:23:35.905Z,10.30
2022-11-14T23:26:07.898Z,10.55
2022-11-14T23:28:34.741Z,10.50
2022-11-14T23:31:02.151Z,10.53
2022-11-14T23:33:29.715Z,11.35
2022-11-14T23:35:56.496Z,10.75
2022-11-14T23:38:23.475Z,10.13
2022-11-14T23:40:57.592Z,11.20
2022-11-14T23:43:24.259Z,10.87
2022-11-14T23:45:51.104Z,10.48
2022-11-14T23:48:19.008Z,11.05
2022-11-14T23:50:49.157Z,10.27
2022-11-14T23:53:15.637Z,10.07
2022-11-14T23:55:42.134Z,11.23
2022-11-14T23:58:08.692Z,10.70
